createdAt,value
2019-01-13T00:02:20.797Z,41.10
2019-01-13T00:04:46.661Z,41.33
2019-01-13T00:07:12.513Z,41.70
2019-01-13T00:09:38.413Z,42.00
2019-01-13T00:12:04.288Z,42.77
2019-01-13T00:14:30.187Z,41.43
2019-01-13T00:16:56.147Z,42.30
2019-01-13T00:19:22.008Z,40.13
2019-01-13T00:21:47.894Z,41.20
2019-01-13T00:24:13.752Z,41.57
2019-01-13T00:26:39.670Z,40.10
2019-01-13T00:29:05.539Z,39.40
2019-01-13T00:31:31.441Z,41.53
2019-01-13T00:33:57.306Z,40.40
2019-01-13T00:36:23.198Z,41.63
2019-01-13T00:38:49.074Z,41.67
2019-01-13T00:41:14.974Z,41.07
2019-01-13T00:43:40.958Z,42.80
2019-01-13T00:46:06.802Z,43.27
2019-01-13T00:48:32.724Z,42.40
2019-01-13T00:50:58.616Z,44.30
2019-01-13T00:53:24.560Z,41.30
2019-01-13T00:55:51.009Z,43.47
2019-01-13T00:58:16.835Z,41.35
2019-01-13T01:00:42.732Z,42.03
2019-01-13T01:03:08.717Z,42.17
2019-01-13T01:05:34.575Z,43.00
2019-01-13T01:08:00.472Z,43.50
2019-01-13T01:10:26.344Z,44.07
2019-01-13T01:12:52.210Z,42.43
2019-01-13T01:15:18.176Z,41.33
2019-01-13T01:17:44.053Z,41.77
2019-01-13T01:20:12.754Z,41.10
2019-01-13T01:22:38.636Z,41.35
2019-01-13T01:25:06.105Z,39.40
2019-01-13T01:27:31.973Z,40.05
2019-01-13T01:29:57.859Z,39.93
2019-01-13T01:32:23.730Z,42.13
2019-01-13T01:34:49.602Z,36.83
2019-01-13T01:37:15.493Z,39.10
2019-01-13T01:39:41.370Z,38.50
2019-01-13T01:42:07.225Z,37.40
2019-01-13T01:44:33.096Z,39.20
2019-01-13T01:46:58.970Z,37.80
2019-01-13T01:49:24.882Z,37.67
2019-01-13T01:51:50.767Z,36.93
2019-01-13T01:54:16.862Z,36.73
2019-01-13T01:56:43.094Z,35.73
2019-01-13T01:59:08.943Z,35.92
2019-01-13T02:01:34.836Z,34.60
2019-01-13T02:04:00.682Z,34.30
2019-01-13T02:06:26.658Z,34.50
2019-01-13T02:08:52.548Z,34.83
2019-01-13T02:11:18.469Z,32.70
2019-01-13T02:13:44.411Z,34.40
2019-01-13T02:16:12.186Z,33.70
2019-01-13T02:18:38.100Z,34.43
2019-01-13T02:21:03.959Z,33.70
2019-01-13T02:23:29.822Z,34.87
2019-01-13T02:25:55.708Z,34.00
2019-01-13T02:28:21.764Z,34.83
2019-01-13T02:30:49.237Z,35.17
2019-01-13T02:33:15.441Z,34.10
2019-01-13T02:35:41.305Z,34.93
2019-01-13T02:38:07.309Z,33.60
2019-01-13T02:40:33.295Z,33.33
2019-01-13T02:42:59.152Z,34.57
2019-01-13T02:45:25.918Z,34.73
2019-01-13T02:47:51.930Z,33.73
2019-01-13T02:50:17.821Z,33.60
2019-01-13T02:52:43.688Z,32.43
2019-01-13T02:55:09.711Z,32.13
2019-01-13T02:57:36.391Z,31.65
2019-01-13T03:00:06.269Z,31.35
2019-01-13T03:02:32.165Z,32.13
2019-01-13T03:04:58.019Z,32.30
2019-01-13T03:07:23.903Z,29.80
2019-01-13T03:09:49.789Z,30.10
2019-01-13T03:12:15.658Z,31.57
2019-01-13T03:14:41.546Z,30.73
2019-01-13T03:17:07.424Z,31.40
2019-01-13T03:19:33.321Z,30.33
2019-01-13T03:21:59.166Z,29.70
2019-01-13T03:24:25.036Z,30.33
2019-01-13T03:26:51.061Z,30.40
2019-01-13T03:29:16.931Z,31.68
2019-01-13T03:31:42.958Z,30.33
2019-01-13T03:34:08.881Z,29.92
2019-01-13T03:36:34.744Z,30.43
2019-01-13T03:39:00.646Z,29.70
2019-01-13T03:41:26.632Z,30.80
2019-01-13T03:43:52.502Z,28.93
2019-01-13T03:46:18.402Z,29.20
2019-01-13T03:48:44.377Z,29.73
2019-01-13T03:51:10.248Z,29.30
2019-01-13T03:53:36.141Z,29.77
2019-01-13T03:56:02.060Z,30.10
2019-01-13T03:58:28.818Z,30.17
2019-01-13T04:00:54.718Z,30.52
2019-01-13T04:03:20.693Z,30.30
2019-01-13T04:05:46.591Z,29.80
2019-01-13T04:08:12.544Z,30.27
2019-01-13T04:10:38.418Z,30.00
2019-01-13T04:13:04.310Z,31.63
2019-01-13T04:15:39.351Z,30.83
2019-01-13T04:18:05.239Z,30.48
2019-01-13T04:20:31.247Z,31.57
2019-01-13T04:22:57.140Z,31.85
2019-01-13T04:25:22.992Z,33.00
2019-01-13T04:27:48.859Z,32.13
2019-01-13T04:30:14.725Z,32.70
2019-01-13T04:32:40.604Z,32.07
2019-01-13T04:35:06.816Z,31.83
2019-01-13T04:37:32.714Z,30.37
2019-01-13T04:39:58.577Z,30.90
2019-01-13T04:42:24.460Z,30.37
2019-01-13T04:44:50.338Z,30.30
2019-01-13T04:47:16.225Z,30.57
2019-01-13T04:49:42.083Z,29.77
2019-01-13T04:52:07.967Z,28.00
2019-01-13T04:54:33.858Z,30.73
2019-01-13T04:56:59.783Z,30.20
2019-01-13T04:59:26.363Z,28.53
2019-01-13T05:01:52.272Z,29.65
2019-01-13T05:04:18.127Z,29.33
2019-01-13T05:06:44.103Z,28.70
2019-01-13T05:09:10.105Z,29.70
2019-01-13T05:11:35.980Z,27.22
2019-01-13T05:14:01.845Z,27.57
2019-01-13T05:16:27.715Z,28.40
2019-01-13T05:18:53.579Z,27.73
2019-01-13T05:21:19.463Z,28.87
2019-01-13T05:23:45.329Z,26.93
2019-01-13T05:26:11.219Z,26.27
2019-01-13T05:28:37.093Z,25.53
2019-01-13T05:31:02.950Z,27.30
2019-01-13T05:33:28.844Z,26.30
2019-01-13T05:35:54.735Z,25.77
2019-01-13T05:38:20.598Z,26.87
2019-01-13T05:40:46.482Z,25.77
2019-01-13T05:43:12.475Z,23.87
2019-01-13T05:45:38.376Z,24.70
2019-01-13T05:48:04.373Z,23.70
2019-01-13T05:50:30.242Z,25.12
2019-01-13T05:52:56.445Z,25.57
2019-01-13T05:55:22.814Z,26.70
2019-01-13T05:57:48.723Z,27.00
2019-01-13T06:00:17.184Z,27.40
2019-01-13T06:02:43.053Z,25.35
2019-01-13T06:05:08.907Z,25.57
2019-01-13T06:07:34.762Z,24.13
2019-01-13T06:10:00.638Z,24.80
2019-01-13T06:12:26.531Z,25.87
2019-01-13T06:14:52.427Z,26.47
2019-01-13T06:17:18.302Z,26.27
2019-01-13T06:19:44.156Z,24.50
2019-01-13T06:22:10.028Z,24.50
2019-01-13T06:24:35.896Z,26.30
2019-01-13T06:27:01.775Z,24.40
2019-01-13T06:29:27.874Z,23.57
2019-01-13T06:31:56.397Z,23.70
2019-01-13T06:34:21.544Z,23.87
2019-01-13T06:36:47.465Z,23.37
2019-01-13T06:39:13.321Z,23.67
2019-01-13T06:41:39.195Z,24.33
2019-01-13T06:44:05.056Z,24.67
2019-01-13T06:46:30.929Z,26.33
2019-01-13T06:48:58.183Z,26.27
2019-01-13T06:51:24.054Z,26.25
2019-01-13T06:53:50.028Z,26.63
2019-01-13T06:56:15.982Z,26.33
2019-01-13T06:58:41.893Z,25.27
2019-01-13T07:01:08.736Z,25.83
2019-01-13T07:03:34.586Z,26.07
2019-01-13T07:06:00.457Z,26.70
2019-01-13T07:08:26.310Z,27.07
2019-01-13T07:10:52.172Z,26.33
2019-01-13T07:13:18.041Z,26.13
2019-01-13T07:15:43.916Z,27.63
2019-01-13T07:18:09.807Z,28.07
2019-01-13T07:20:35.717Z,27.67
2019-01-13T07:23:01.617Z,27.37
2019-01-13T07:25:27.454Z,27.80
2019-01-13T07:27:53.316Z,26.73
2019-01-13T07:30:22.169Z,25.83
2019-01-13T07:32:48.298Z,26.00
2019-01-13T07:35:14.204Z,26.17
2019-01-13T07:37:40.061Z,26.93
2019-01-13T07:40:12.545Z,25.43
2019-01-13T07:42:38.414Z,26.93
2019-01-13T07:45:07.886Z,27.27
2019-01-13T07:47:33.739Z,25.95
2019-01-13T07:49:59.634Z,26.17
2019-01-13T07:52:25.516Z,27.80
2019-01-13T07:54:51.588Z,28.00
2019-01-13T07:57:17.560Z,28.65
2019-01-13T07:59:43.461Z,28.83
2019-01-13T08:02:10.219Z,28.63
2019-01-13T08:04:36.064Z,28.57
2019-01-13T08:07:01.932Z,26.80
2019-01-13T08:09:27.814Z,28.73
2019-01-13T08:11:54.045Z,26.93
2019-01-13T08:14:19.930Z,28.20
2019-01-13T08:16:45.837Z,28.33
2019-01-13T08:19:11.699Z,29.10
2019-01-13T08:21:37.563Z,27.93
2019-01-13T08:24:03.424Z,28.53
2019-01-13T08:26:29.326Z,27.00
2019-01-13T08:28:55.187Z,26.83
2019-01-13T08:31:21.051Z,27.90
2019-01-13T08:33:46.939Z,26.67
2019-01-13T08:36:12.836Z,25.70
2019-01-13T08:38:38.698Z,26.23
2019-01-13T08:41:04.604Z,24.70
2019-01-13T08:43:30.448Z,24.40
2019-01-13T08:45:56.328Z,24.00
2019-01-13T08:48:22.170Z,22.33
2019-01-13T08:50:48.019Z,22.50
2019-01-13T08:53:13.882Z,23.47
2019-01-13T08:55:39.753Z,22.20
2019-01-13T08:58:05.621Z,22.50
2019-01-13T09:00:31.532Z,21.73
2019-01-13T09:02:58.098Z,21.97
2019-01-13T09:05:23.997Z,21.20
2019-01-13T09:07:49.863Z,21.30
2019-01-13T09:10:17.427Z,21.00
2019-01-13T09:12:43.288Z,21.53
2019-01-13T09:15:12.248Z,20.67
2019-01-13T09:17:38.132Z,21.77
2019-01-13T09:20:07.818Z,21.43
2019-01-13T09:22:33.801Z,21.03
2019-01-13T09:24:59.785Z,20.57
2019-01-13T09:27:25.668Z,21.10
2019-01-13T09:29:51.516Z,21.03
2019-01-13T09:32:17.371Z,21.33
2019-01-13T09:34:43.244Z,20.77
2019-01-13T09:37:09.124Z,22.03
2019-01-13T09:39:35.013Z,22.83
2019-01-13T09:42:00.881Z,23.33
2019-01-13T09:44:26.743Z,24.85
2019-01-13T09:46:52.631Z,24.40
2019-01-13T09:49:18.491Z,24.90
2019-01-13T09:51:44.448Z,23.47
2019-01-13T09:54:10.322Z,24.87
2019-01-13T09:56:36.184Z,25.40
2019-01-13T09:59:02.049Z,24.87
2019-01-13T10:01:27.993Z,25.37
2019-01-13T10:03:54.890Z,26.00
2019-01-13T10:06:20.766Z,25.57
2019-01-13T10:08:46.629Z,25.40
2019-01-13T10:11:12.536Z,25.63
2019-01-13T10:13:38.389Z,25.10
2019-01-13T10:16:04.246Z,26.07
2019-01-13T10:18:30.113Z,27.70
2019-01-13T10:20:56.152Z,27.83
2019-01-13T10:23:22.209Z,28.67
2019-01-13T10:25:48.058Z,28.57
2019-01-13T10:28:13.932Z,27.97
2019-01-13T10:30:39.846Z,28.50
2019-01-13T10:33:05.737Z,27.03
2019-01-13T10:35:31.590Z,29.40
2019-01-13T10:37:57.469Z,28.03
2019-01-13T10:40:26.973Z,29.10
2019-01-13T10:42:52.828Z,29.03
2019-01-13T10:45:18.821Z,29.23
2019-01-13T10:51:12.152Z,30.93
2019-01-13T10:53:38.064Z,31.90
2019-01-13T10:56:03.932Z,32.07
2019-01-13T10:58:29.785Z,34.90
2019-01-13T11:00:55.671Z,35.63
2019-01-13T11:03:21.849Z,36.07
2019-01-13T11:05:48.219Z,37.60
2019-01-13T11:08:14.143Z,38.00
2019-01-13T11:10:40.069Z,41.37
2019-01-13T11:13:05.943Z,41.17
2019-01-13T11:15:31.804Z,41.00
2019-01-13T11:17:57.660Z,41.70
2019-01-13T11:20:32.356Z,43.00
2019-01-13T11:22:58.368Z,43.10
2019-01-13T11:25:24.273Z,43.90
2019-01-13T11:27:50.140Z,43.67
2019-01-13T11:30:18.082Z,43.70
2019-01-13T11:32:43.926Z,44.77
2019-01-13T11:35:12.525Z,43.33
2019-01-13T11:37:38.412Z,45.93
2019-01-13T11:40:10.643Z,43.60
2019-01-13T11:42:36.503Z,43.93
2019-01-13T11:45:04.304Z,44.70
2019-01-13T11:47:30.180Z,44.60
2019-01-13T11:49:56.068Z,44.40
2019-01-13T11:52:21.942Z,45.97
2019-01-13T11:54:47.826Z,44.77
2019-01-13T11:57:14.105Z,45.90
2019-01-13T11:59:40.086Z,45.00
2019-01-13T12:02:06.016Z,44.70
2019-01-13T12:04:31.911Z,44.63
2019-01-13T12:06:58.511Z,45.20
2019-01-13T12:09:24.474Z,46.43
2019-01-13T12:11:50.358Z,44.10
2019-01-13T12:14:16.319Z,45.40
2019-01-13T12:16:42.557Z,44.47
2019-01-13T12:19:08.398Z,46.13
2019-01-13T12:21:34.292Z,44.33
2019-01-13T12:24:00.199Z,44.67
2019-01-13T12:26:26.081Z,45.33
2019-01-13T12:28:52.080Z,44.63
2019-01-13T12:31:17.942Z,44.17
2019-01-13T12:33:43.866Z,42.47
2019-01-13T12:36:09.761Z,41.50
2019-01-13T12:38:35.625Z,42.10
2019-01-13T12:41:01.507Z,42.10
2019-01-13T12:43:27.423Z,42.87
2019-01-13T12:45:53.292Z,43.53
2019-01-13T12:48:19.193Z,40.77
2019-01-13T12:50:45.195Z,40.80
2019-01-13T12:53:11.055Z,40.67
2019-01-13T12:55:36.977Z,43.03
2019-01-13T12:58:06.708Z,41.07
2019-01-13T13:00:32.580Z,43.07
2019-01-13T13:02:58.442Z,42.63
2019-01-13T13:05:24.340Z,42.60
2019-01-13T13:07:51.484Z,42.70
2019-01-13T13:10:26.724Z,41.73
2019-01-13T13:12:52.711Z,42.17
2019-01-13T13:15:18.621Z,42.17
2019-01-13T13:17:45.367Z,42.20
2019-01-13T13:20:15.064Z,42.00
2019-01-13T13:22:40.947Z,43.10
2019-01-13T13:25:08.804Z,42.63
2019-01-13T13:27:34.679Z,42.33
2019-01-13T13:30:00.549Z,44.27
2019-01-13T13:32:26.448Z,42.20
2019-01-13T13:34:52.398Z,43.37
2019-01-13T13:37:18.271Z,44.13
2019-01-13T13:39:44.138Z,43.83
2019-01-13T13:42:10.068Z,42.97
2019-01-13T13:44:35.885Z,42.20
2019-01-13T13:47:01.779Z,45.03
2019-01-13T13:49:28.031Z,41.47
2019-01-13T13:51:54.009Z,43.83
2019-01-13T13:54:19.955Z,41.10
2019-01-13T13:56:45.922Z,42.73
2019-01-13T13:59:11.947Z,43.20
2019-01-13T14:01:37.814Z,41.97
2019-01-13T14:04:03.799Z,43.87
2019-01-13T14:06:29.695Z,43.17
2019-01-13T14:08:56.639Z,43.53
2019-01-13T14:11:22.567Z,44.23
2019-01-13T14:13:48.540Z,44.07
2019-01-13T14:16:14.544Z,43.43
2019-01-13T14:18:40.410Z,43.03
2019-01-13T14:21:06.310Z,45.23
2019-01-13T14:23:32.174Z,46.73
2019-01-13T14:26:00.041Z,44.67
2019-01-13T14:28:25.945Z,46.00
2019-01-13T14:30:51.825Z,46.70
2019-01-13T14:33:17.738Z,45.07
2019-01-13T14:35:43.715Z,45.67
2019-01-13T14:38:09.603Z,46.43
2019-01-13T14:40:35.490Z,47.10
2019-01-13T14:43:01.374Z,47.63
2019-01-13T14:45:27.272Z,49.03
2019-01-13T14:47:53.164Z,48.73
2019-01-13T14:50:21.044Z,47.90
2019-01-13T14:52:47.537Z,49.20
2019-01-13T14:55:13.916Z,46.20
2019-01-13T14:57:39.787Z,51.77
2019-01-13T15:00:11.381Z,48.93
2019-01-13T15:02:37.252Z,47.40
2019-01-13T15:05:06.278Z,48.13
2019-01-13T15:07:32.324Z,46.77
2019-01-13T15:09:58.946Z,48.87
2019-01-13T15:12:24.992Z,49.73
2019-01-13T15:14:51.038Z,49.37
2019-01-13T15:17:16.918Z,48.97
2019-01-13T15:19:42.891Z,48.13
2019-01-13T15:22:08.824Z,47.27
2019-01-13T15:24:34.728Z,48.87
2019-01-13T15:27:00.591Z,48.40
2019-01-13T15:29:26.498Z,47.37
2019-01-13T15:31:52.391Z,47.60
2019-01-13T15:34:18.321Z,47.23
2019-01-13T15:36:44.185Z,50.13
2019-01-13T15:39:10.059Z,49.20
2019-01-13T15:41:35.991Z,48.13
2019-01-13T15:44:01.915Z,49.37
2019-01-13T15:46:27.789Z,50.00
2019-01-13T15:48:53.644Z,51.80
2019-01-13T15:51:19.551Z,52.07
2019-01-13T15:53:45.513Z,51.77
2019-01-13T15:56:11.401Z,50.47
2019-01-13T15:58:37.262Z,51.73
2019-01-13T16:01:03.165Z,50.67
2019-01-13T16:03:29.046Z,48.73
2019-01-13T16:05:54.928Z,51.30
2019-01-13T16:08:20.821Z,50.10
2019-01-13T16:10:47.028Z,52.50
2019-01-13T16:13:12.941Z,51.67
2019-01-13T16:15:38.838Z,50.27
2019-01-13T16:18:04.725Z,51.07
2019-01-13T16:20:32.691Z,48.97
2019-01-13T16:22:58.599Z,51.17
2019-01-13T16:25:24.478Z,51.37
2019-01-13T16:27:50.355Z,49.13
2019-01-13T16:30:27.563Z,51.60
2019-01-13T16:32:53.459Z,50.37
2019-01-13T16:35:19.349Z,50.27
2019-01-13T16:37:45.351Z,51.27
2019-01-13T16:40:13.236Z,50.40
2019-01-13T16:42:39.140Z,51.37
2019-01-13T16:45:08.153Z,48.60
2019-01-13T16:47:34.012Z,51.33
2019-01-13T16:49:59.903Z,51.27
2019-01-13T16:52:25.774Z,49.77
2019-01-13T16:54:51.679Z,50.70
2019-01-13T16:57:17.670Z,51.00
2019-01-13T16:59:43.555Z,50.90
2019-01-13T17:02:09.426Z,52.20
2019-01-13T17:04:35.420Z,51.73
2019-01-13T17:07:01.313Z,53.67
2019-01-13T17:09:27.295Z,51.53
2019-01-13T17:11:53.466Z,51.50
2019-01-13T17:14:19.381Z,52.03
2019-01-13T17:16:45.243Z,52.03
2019-01-13T17:19:11.110Z,50.70
2019-01-13T17:21:36.974Z,53.27
2019-01-13T17:24:02.842Z,54.13
2019-01-13T17:26:28.694Z,54.73
2019-01-13T17:28:54.611Z,51.50
2019-01-13T17:31:20.503Z,54.60
2019-01-13T17:33:46.376Z,55.20
2019-01-13T17:36:12.260Z,53.53
2019-01-13T17:38:38.153Z,53.00
2019-01-13T17:41:04.051Z,53.73
2019-01-13T17:43:29.930Z,54.53
2019-01-13T17:45:55.803Z,52.83
2019-01-13T17:48:21.667Z,56.77
2019-01-13T17:50:47.516Z,55.63
2019-01-13T17:53:13.376Z,55.50
2019-01-13T17:55:39.248Z,56.73
2019-01-13T17:58:05.233Z,56.27
2019-01-13T18:00:37.405Z,55.10
2019-01-13T18:03:06.388Z,55.20
2019-01-13T18:05:32.272Z,55.50
2019-01-13T18:07:58.440Z,59.97
2019-01-13T18:10:24.791Z,59.73
2019-01-13T18:12:51.495Z,57.40
2019-01-13T18:15:17.376Z,56.83
2019-01-13T18:17:43.263Z,56.37
2019-01-13T18:20:12.786Z,56.80
2019-01-13T18:22:38.665Z,57.73
2019-01-13T18:25:04.541Z,57.37
2019-01-13T18:27:30.409Z,59.30
2019-01-13T18:29:56.268Z,56.67
2019-01-13T18:32:22.157Z,62.83
2019-01-13T18:34:50.352Z,59.00
2019-01-13T18:37:15.938Z,60.07
2019-01-13T18:39:41.813Z,59.73
2019-01-13T18:42:08.066Z,62.57
2019-01-13T18:44:34.039Z,59.40
2019-01-13T18:46:59.936Z,64.40
2019-01-13T18:49:25.929Z,60.07
2019-01-13T18:51:51.809Z,64.27
2019-01-13T18:54:18.102Z,64.47
2019-01-13T18:56:44.020Z,64.33
2019-01-13T18:59:09.875Z,64.27
2019-01-13T19:01:35.782Z,64.80
2019-01-13T19:04:01.738Z,65.33
2019-01-13T19:06:27.613Z,70.47
2019-01-13T19:08:53.500Z,71.90
2019-01-13T19:11:19.401Z,69.67
2019-01-13T19:14:01.173Z,69.80
2019-01-13T19:16:30.136Z,68.97
2019-01-13T19:18:56.354Z,65.80
2019-01-13T19:21:22.237Z,68.63
2019-01-13T19:23:48.098Z,65.90
2019-01-13T19:26:14.004Z,65.63
2019-01-13T19:28:39.885Z,66.63
2019-01-13T19:31:05.769Z,62.87
2019-01-13T19:33:31.655Z,66.33
2019-01-13T19:35:57.534Z,68.67
2019-01-13T19:38:23.505Z,71.37
2019-01-13T19:40:49.422Z,61.70
2019-01-13T19:43:15.349Z,64.73
2019-01-13T19:45:41.207Z,65.10
2019-01-13T19:48:07.089Z,62.80
2019-01-13T19:50:32.964Z,64.60
2019-01-13T19:53:00.457Z,64.80
2019-01-13T19:55:26.608Z,64.13
2019-01-13T19:57:52.581Z,66.47
2019-01-13T20:00:27.261Z,63.20
2019-01-13T20:02:53.120Z,65.60
2019-01-13T20:05:19.093Z,65.40
2019-01-13T20:07:45.349Z,62.30
2019-01-13T20:10:12.731Z,65.30
2019-01-13T20:12:38.635Z,62.83
2019-01-13T20:15:09.123Z,66.37
2019-01-13T20:17:35.296Z,63.73
2019-01-13T20:20:01.689Z,64.33
2019-01-13T20:22:27.584Z,64.73
2019-01-13T20:24:53.461Z,67.47
2019-01-13T20:27:19.439Z,63.50
2019-01-13T20:29:45.538Z,65.00
2019-01-13T20:32:11.435Z,64.17
2019-01-13T20:34:37.584Z,64.67
2019-01-13T20:37:03.659Z,62.37
2019-01-13T20:39:29.835Z,63.40
2019-01-13T20:41:55.838Z,62.80
2019-01-13T20:44:21.999Z,62.90
2019-01-13T20:46:47.894Z,63.70
2019-01-13T20:49:14.127Z,71.83
2019-01-13T20:51:40.259Z,67.23
2019-01-13T20:54:07.923Z,64.80
2019-01-13T20:56:34.264Z,68.83
2019-01-13T20:59:00.261Z,65.57
2019-01-13T21:01:26.311Z,67.97
2019-01-13T21:03:52.954Z,69.10
2019-01-13T21:06:18.964Z,67.13
2019-01-13T21:08:44.834Z,67.40
2019-01-13T21:11:11.979Z,67.63
2019-01-13T21:13:37.931Z,67.73
2019-01-13T21:16:04.854Z,66.93
2019-01-13T21:18:30.740Z,69.77
2019-01-13T21:20:57.017Z,67.40
2019-01-13T21:23:22.920Z,74.20
2019-01-13T21:25:48.825Z,70.43
2019-01-13T21:28:15.041Z,68.20
2019-01-13T21:30:40.999Z,71.50
2019-01-13T21:33:06.866Z,66.43
2019-01-13T21:35:34.006Z,67.63
2019-01-13T21:38:00.769Z,67.87
2019-01-13T21:40:26.852Z,70.80
2019-01-13T21:42:52.732Z,68.10
2019-01-13T21:45:22.496Z,67.53
2019-01-13T21:47:48.452Z,69.10
2019-01-13T21:50:17.423Z,71.93
2019-01-13T21:52:43.299Z,71.60
2019-01-13T21:55:11.185Z,75.03
2019-01-13T21:57:37.087Z,73.03
2019-01-13T22:00:08.046Z,76.57
2019-01-13T22:02:34.049Z,80.83
2019-01-13T22:04:59.936Z,76.93
2019-01-13T22:07:25.798Z,74.93
2019-01-13T22:09:51.665Z,75.40
2019-01-13T22:12:17.543Z,75.53
2019-01-13T22:14:43.480Z,76.50
2019-01-13T22:17:09.633Z,75.63
2019-01-13T22:19:35.519Z,76.83
2019-01-13T22:22:01.506Z,79.43
2019-01-13T22:24:27.388Z,85.27
2019-01-13T22:26:53.269Z,80.63
2019-01-13T22:29:19.285Z,80.43
2019-01-13T22:31:45.173Z,77.77
2019-01-13T22:34:11.107Z,77.30
2019-01-13T22:36:37.048Z,78.07
2019-01-13T22:39:07.752Z,79.00
2019-01-13T22:41:33.862Z,78.23
2019-01-13T22:43:59.733Z,75.23
2019-01-13T22:46:25.689Z,75.90
2019-01-13T22:48:51.598Z,75.47
2019-01-13T22:51:17.450Z,73.13
2019-01-13T22:53:43.338Z,71.03
2019-01-13T22:56:09.261Z,71.53
2019-01-13T22:58:35.128Z,72.03
2019-01-13T23:01:12.836Z,65.40
2019-01-13T23:03:38.802Z,64.37
2019-01-13T23:06:04.640Z,60.40
2019-01-13T23:08:30.482Z,59.20
2019-01-13T23:10:56.387Z,53.83
2019-01-13T23:13:22.258Z,56.97
2019-01-13T23:15:48.170Z,56.67
2019-01-13T23:18:14.680Z,54.33
2019-01-13T23:20:40.677Z,50.97
2019-01-13T23:23:06.542Z,51.07
2019-01-13T23:25:32.412Z,51.43
2019-01-13T23:27:58.423Z,50.10
2019-01-13T23:30:24.314Z,49.30
2019-01-13T23:32:50.243Z,50.90
2019-01-13T23:35:16.117Z,49.20
2019-01-13T23:37:42.120Z,48.37
2019-01-13T23:40:08.033Z,46.17
2019-01-13T23:42:34.007Z,46.17
2019-01-13T23:44:59.869Z,45.83
2019-01-13T23:47:25.769Z,47.80
2019-01-13T23:49:51.612Z,49.47
2019-01-13T23:52:17.502Z,49.53
2019-01-13T23:54:43.397Z,50.67
2019-01-13T23:57:09.269Z,47.93
2019-01-13T23:59:35.260Z,48.07
